Time;durP1;ratioP1;P1;durP2;ratioP2;P2;SDS_P1;SDS_P2;PMS_P1;PMS_P2;Temp;Humidity;BMP_temperature;BMP_pressure;BME280_temperature;BME280_humidity;BME280_pressure;Samples;Min_cycle;Max_cycle;Signal;HPM_P1;HPM_P2
2023/10/16 00:01:11;;;;;;;14.07;7.20;;;0.10;99.90;;;;;;5097365;28;20513;-84
2023/10/16 00:03:43;;;;;;;14.15;6.70;;;0.10;99.90;;;;;;5070962;28;20265;-84
2023/10/16 00:06:12;;;;;;;17.33;8.70;;;0.10;99.90;;;;;;5114997;27;20039;-83
2023/10/16 00:08:48;;;;;;;16.95;8.07;;;0.20;99.90;;;;;;5089104;28;20057;-83
2023/10/16 00:11:23;;;;;;;17.55;8.48;;;0.20;99.90;;;;;;5117667;27;20036;-84
2023/10/16 00:13:54;;;;;;;37.83;15.43;;;0.10;99.90;;;;;;5064375;28;20035;-84
2023/10/16 00:16:23;;;;;;;28.25;12.80;;;0.00;99.90;;;;;;5062044;28;20032;-84
2023/10/16 00:18:53;;;;;;;22.23;11.55;;;0.00;99.90;;;;;;5089106;28;20034;-84
2023/10/16 00:21:19;;;;;;;19.58;9.18;;;-0.10;99.90;;;;;;5088967;28;20032;-84
2023/10/16 00:23:46;;;;;;;19.88;8.68;;;-0.20;99.90;;;;;;5084153;28;20020;-83
2023/10/16 00:26:15;;;;;;;16.65;8.18;;;-0.20;99.90;;;;;;5122645;27;20073;-84
2023/10/16 00:28:52;;;;;;;16.33;6.88;;;-0.30;99.90;;;;;;5085274;28;20104;-84
2023/10/16 00:31:21;;;;;;;12.32;6.75;;;-0.40;99.90;;;;;;5101664;28;20031;-84
2023/10/16 00:33:51;;;;;;;15.02;7.03;;;-0.30;99.90;;;;;;5112201;27;20034;-84
2023/10/16 00:36:17;;;;;;;13.23;6.90;;;-0.30;99.90;;;;;;5103862;28;20493;-84
2023/10/16 00:38:48;;;;;;;15.60;7.10;;;-0.40;99.90;;;;;;5063870;28;20020;-84
2023/10/16 00:43:40;;;;;;;18.65;8.52;;;-0.40;99.90;;;;;;5098194;28;20085;-84
2023/10/16 00:46:09;;;;;;;13.43;7.03;;;-0.40;99.90;;;;;;5100701;28;20028;-84
2023/10/16 00:48:39;;;;;;;16.08;6.15;;;-0.40;99.90;;;;;;5086364;28;20455;-84
2023/10/16 00:51:09;;;;;;;14.45;6.72;;;-0.30;99.90;;;;;;5062409;28;20128;-85
2023/10/16 00:53:40;;;;;;;12.00;6.72;;;-0.20;99.90;;;;;;5067102;28;20070;-84
2023/10/16 00:56:14;;;;;;;17.60;6.95;;;-0.10;99.90;;;;;;5083670;28;20495;-84
2023/10/16 00:58:42;;;;;;;15.38;6.55;;;-0.10;99.90;;;;;;5076440;28;20033;-84
2023/10/16 01:01:12;;;;;;;26.48;7.82;;;-0.10;99.90;;;;;;5088771;28;20406;-84
2023/10/16 01:03:40;;;;;;;21.67;7.72;;;0.10;99.90;;;;;;5076605;28;20032;-85
2023/10/16 01:06:15;;;;;;;15.68;7.70;;;0.20;99.90;;;;;;5088720;28;20368;-84
2023/10/16 01:08:47;;;;;;;22.40;8.30;;;0.40;99.90;;;;;;5060452;28;20025;-84
2023/10/16 01:11:18;;;;;;;14.95;7.97;;;0.60;99.90;;;;;;5075222;28;20032;-84
2023/10/16 01:13:47;;;;;;;;;;;0.60;99.90;;;;;;5095605;28;20024;-84
2023/10/16 01:16:16;;;;;;;16.98;7.25;;;0.80;99.90;;;;;;5063331;28;19910;-84
2023/10/16 01:18:42;;;;;;;21.23;8.75;;;0.90;99.90;;;;;;5073220;28;20032;-84
2023/10/16 01:21:08;;;;;;;19.83;8.55;;;0.90;99.90;;;;;;5113807;27;20036;-84
2023/10/16 01:23:34;;;;;;;18.55;7.25;;;0.90;99.90;;;;;;5057661;28;20074;-84
2023/10/16 01:26:01;;;;;;;19.25;7.80;;;0.90;99.90;;;;;;5102688;28;20054;-84
2023/10/16 01:28:27;;;;;;;18.52;8.88;;;0.90;99.90;;;;;;5084840;28;20521;-84
2023/10/16 01:30:53;;;;;;;18.58;7.85;;;0.90;99.90;;;;;;5062996;28;20530;-84
2023/10/16 01:33:20;;;;;;;20.70;7.60;;;0.90;99.90;;;;;;5070297;28;20133;-84
2023/10/16 01:35:52;;;;;;;17.95;8.15;;;0.90;99.90;;;;;;5080436;28;20044;-84
2023/10/16 01:38:18;;;;;;;21.27;8.52;;;0.90;99.90;;;;;;5079976;28;20415;-84
2023/10/16 01:40:47;;;;;;;19.77;8.48;;;1.00;99.90;;;;;;5083237;28;20107;-84
2023/10/16 01:43:16;;;;;;;25.73;8.00;;;1.10;99.90;;;;;;5066023;28;20360;-84
2023/10/16 01:45:52;;;;;;;20.90;8.20;;;1.20;99.90;;;;;;5082632;28;20071;-84
2023/10/16 01:48:21;;;;;;;15.63;7.85;;;1.20;99.90;;;;;;5079937;28;20544;-84
2023/10/16 01:50:50;;;;;;;14.55;7.82;;;1.10;99.90;;;;;;5085003;28;20056;-83
2023/10/16 01:53:20;;;;;;;15.05;8.35;;;1.10;99.90;;;;;;5063201;28;20032;-84
2023/10/16 01:55:51;;;;;;;20.42;8.05;;;1.10;99.90;;;;;;5052431;28;20020;-84
2023/10/16 01:58:17;;;;;;;19.75;7.50;;;1.10;99.90;;;;;;5080669;28;20028;-84
2023/10/16 02:00:45;;;;;;;23.40;7.82;;;0.90;99.90;;;;;;5092010;28;20062;-84
2023/10/16 02:03:11;;;;;;;26.80;7.72;;;0.90;99.90;;;;;;5083866;28;20080;-84
2023/10/16 02:05:41;;;;;;;19.55;7.40;;;0.90;99.90;;;;;;5081857;28;20050;-84
2023/10/16 02:08:07;;;;;;;16.17;7.50;;;0.80;99.90;;;;;;5075390;28;20024;-84
2023/10/16 02:10:32;;;;;;;24.27;7.00;;;0.80;99.90;;;;;;5058392;28;20391;-84
2023/10/16 02:12:58;;;;;;;21.25;7.22;;;0.70;99.90;;;;;;5106823;28;20038;-83
2023/10/16 02:15:24;;;;;;;17.73;6.97;;;0.70;99.90;;;;;;5075133;28;20061;-83
2023/10/16 02:17:50;;;;;;;15.95;7.00;;;0.70;99.90;;;;;;5099748;28;20027;-84
2023/10/16 02:20:17;;;;;;;15.90;6.72;;;0.70;99.90;;;;;;5063205;28;20032;-84
2023/10/16 02:22:43;;;;;;;23.38;7.13;;;0.70;99.90;;;;;;5097262;28;20375;-84
2023/10/16 02:25:11;;;;;;;25.65;7.57;;;0.70;99.90;;;;;;5061797;28;20123;-82
2023/10/16 02:27:37;;;;;;;13.57;6.55;;;0.70;99.90;;;;;;5096768;28;20036;-84
2023/10/16 02:30:20;;;;;;;24.52;6.85;;;0.80;99.90;;;;;;5067546;28;20363;-84
2023/10/16 02:32:49;;;;;;;17.13;6.85;;;0.70;99.90;;;;;;5062038;28;20548;-84
2023/10/16 02:35:15;;;;;;;20.15;7.40;;;0.60;99.90;;;;;;5072171;28;20051;-84
2023/10/16 02:37:41;;;;;;;26.13;8.13;;;0.40;99.90;;;;;;5068061;28;20031;-84
2023/10/16 02:40:17;;;;;;;18.10;7.18;;;0.50;99.90;;;;;;5081312;28;20031;-84
2023/10/16 02:42:43;;;;;;;18.58;7.60;;;0.60;99.90;;;;;;5106412;28;20028;-84
2023/10/16 02:45:23;;;;;;;18.98;7.47;;;0.70;99.90;;;;;;5116764;28;20058;-84
2023/10/16 02:47:49;;;;;;;20.88;7.13;;;0.70;99.90;;;;;;5067182;28;20044;-84
2023/10/16 02:50:50;;;;;;;24.73;7.40;;;0.60;99.90;;;;;;5114778;28;20044;-84
2023/10/16 02:53:23;;;;;;;32.83;7.63;;;0.50;99.90;;;;;;5082296;28;20028;-83
2023/10/16 02:55:53;;;;;;;17.45;6.80;;;0.40;99.90;;;;;;5067400;28;20113;-84
2023/10/16 02:58:22;;;;;;;24.87;7.20;;;0.40;99.90;;;;;;5081414;28;20103;-84
2023/10/16 03:00:55;;;;;;;22.25;7.40;;;0.30;99.90;;;;;;5089302;28;20353;-84
2023/10/16 03:03:24;;;;;;;19.25;7.32;;;0.30;99.90;;;;;;5071633;28;21145;-84
2023/10/16 03:05:58;;;;;;;21.70;8.30;;;0.40;99.90;;;;;;5082198;28;20039;-84
2023/10/16 03:08:30;;;;;;;19.23;7.30;;;0.40;99.90;;;;;;5120181;28;20030;-83
2023/10/16 03:11:04;;;;;;;26.60;7.72;;;0.40;99.90;;;;;;5073026;28;20028;-84
2023/10/16 03:13:35;;;;;;;23.65;6.90;;;0.40;99.90;;;;;;5077974;28;20059;-84
2023/10/16 03:16:05;;;;;;;25.63;7.43;;;0.30;99.90;;;;;;5071883;28;20028;-84
2023/10/16 03:18:34;;;;;;;17.45;6.72;;;0.20;99.90;;;;;;5067785;28;20478;-84
2023/10/16 03:23:42;;;;;;;18.95;7.20;;;0.10;99.90;;;;;;5079089;28;20120;-84
2023/10/16 03:28:47;;;;;;;52.67;20.08;;;0.00;99.90;;;;;;5084863;28;20157;-84
2023/10/16 03:31:14;;;;;;;52.03;15.93;;;-0.10;99.90;;;;;;5079472;28;20036;-84
2023/10/16 03:33:40;;;;;;;37.50;12.57;;;-0.20;99.90;;;;;;5074048;28;20374;-84
2023/10/16 03:36:05;;;;;;;64.22;25.23;;;-0.20;99.90;;;;;;5067296;28;20028;-84
2023/10/16 03:38:37;;;;;;;43.92;12.95;;;-0.10;99.90;;;;;;5075243;28;20032;-84
2023/10/16 03:43:58;;;;;;;23.67;7.88;;;0.10;99.90;;;;;;5117030;27;20031;-84
2023/10/16 03:46:27;;;;;;;32.15;7.57;;;0.00;99.90;;;;;;5068071;28;20494;-84
2023/10/16 03:48:56;;;;;;;26.10;7.30;;;-0.10;99.90;;;;;;5084130;28;20028;-84
2023/10/16 03:51:22;;;;;;;19.42;6.20;;;-0.10;99.90;;;;;;5063903;28;20514;-84
2023/10/16 03:53:52;;;;;;;29.90;11.85;;;-0.10;99.90;;;;;;5088757;28;20035;-84
2023/10/16 03:56:19;;;;;;;33.40;9.68;;;0.00;99.90;;;;;;5079481;28;20028;-84
2023/10/16 03:58:44;;;;;;;21.55;7.53;;;0.00;99.90;;;;;;5087682;28;20024;-84
2023/10/16 04:01:11;;;;;;;28.67;7.15;;;-0.10;99.90;;;;;;5076175;28;20028;-83
2023/10/16 04:03:47;;;;;;;25.65;8.73;;;-0.20;99.90;;;;;;5066543;28;20118;-84
2023/10/16 04:06:19;;;;;;;26.90;7.15;;;-0.20;99.90;;;;;;5085679;28;20031;-84
2023/10/16 04:08:53;;;;;;;15.55;6.22;;;-0.20;99.90;;;;;;5081670;28;20032;-84
2023/10/16 04:11:25;;;;;;;19.33;6.55;;;-0.30;99.90;;;;;;5068167;28;20036;-84
2023/10/16 04:13:54;;;;;;;18.10;5.82;;;-0.30;99.90;;;;;;5092867;28;20035;-84
2023/10/16 04:21:43;;;;;;;29.95;11.15;;;-0.30;99.90;;;;;;5121574;27;20028;-84
2023/10/16 04:30:10;;;;;;;26.85;9.45;;;-0.50;99.90;;;;;;5092641;28;20031;-84
2023/10/16 04:32:56;;;;;;;17.67;6.65;;;-0.50;99.90;;;;;;5089062;28;20028;-84
2023/10/16 04:38:27;;;;;;;15.95;6.60;;;-0.60;99.90;;;;;;5113216;28;20037;-84
2023/10/16 04:46:23;;;;;;;15.68;6.93;;;-0.70;99.90;;;;;;5104523;28;20050;-84
2023/10/16 04:49:16;;;;;;;21.70;7.88;;;-0.70;99.90;;;;;;5087875;28;20031;-84
2023/10/16 04:51:52;;;;;;;21.75;7.70;;;-0.60;99.90;;;;;;5098906;28;20059;-84
2023/10/16 04:54:37;;;;;;;27.40;9.38;;;-0.60;99.90;;;;;;5085613;28;20035;-84
2023/10/16 05:02:40;;;;;;;32.00;11.02;;;-0.50;99.90;;;;;;5082599;28;20032;-83
2023/10/16 05:07:53;;;;;;;40.85;13.52;;;-0.40;99.90;;;;;;5081084;28;20032;-84
2023/10/16 05:13:35;;;;;;;42.40;13.40;;;-0.40;99.90;;;;;;5084420;28;20036;-84
2023/10/16 05:19:03;;;;;;;24.63;10.50;;;-0.40;99.90;;;;;;5078149;28;20031;-84
2023/10/16 06:16:22;;;;;;;36.33;12.75;;;0.50;99.90;;;;;;5077448;28;20387;-84
2023/10/16 06:18:49;;;;;;;36.67;13.73;;;0.60;99.90;;;;;;5095706;28;20039;-83
2023/10/16 06:21:15;;;;;;;34.10;11.90;;;0.60;99.90;;;;;;5060581;28;20016;-84
2023/10/16 06:23:53;;;;;;;33.75;13.00;;;0.70;99.90;;;;;;5063345;28;20122;-84
2023/10/16 06:26:24;;;;;;;36.38;14.88;;;0.80;99.90;;;;;;5079861;28;20032;-84
2023/10/16 06:28:52;;;;;;;43.17;15.25;;;0.80;99.90;;;;;;5083077;28;20024;-84
2023/10/16 06:31:24;;;;;;;70.47;29.48;;;1.00;99.90;;;;;;5060243;28;20078;-84
2023/10/16 06:33:56;;;;;;;52.22;19.02;;;1.00;99.90;;;;;;5057661;28;20032;-84
2023/10/16 06:36:24;;;;;;;51.00;15.32;;;1.10;99.90;;;;;;5057900;28;20367;-84
2023/10/16 06:38:53;;;;;;;39.95;13.50;;;1.30;99.90;;;;;;5091222;28;20059;-84
2023/10/16 06:41:20;;;;;;;45.38;14.45;;;1.40;99.90;;;;;;5055785;28;20073;-84
2023/10/16 06:43:47;;;;;;;47.78;12.68;;;1.50;99.90;;;;;;5062074;28;20024;-85
2023/10/16 06:46:21;;;;;;;51.03;12.88;;;1.70;99.90;;;;;;5083253;28;20494;-85
2023/10/16 06:48:48;;;;;;;46.95;13.55;;;1.90;99.90;;;;;;5095340;28;20032;-84
2023/10/16 06:51:15;;;;;;;43.65;12.90;;;2.10;99.90;;;;;;5079757;28;20026;-84
2023/10/16 06:53:45;;;;;;;37.67;12.65;;;2.30;99.90;;;;;;5101148;28;20115;-84
2023/10/16 06:56:18;;;;;;;45.65;14.60;;;2.40;99.90;;;;;;5063982;28;20475;-84
2023/10/16 06:58:45;;;;;;;49.83;15.50;;;2.50;99.90;;;;;;5074176;28;20036;-84
2023/10/16 07:01:19;;;;;;;45.83;15.10;;;2.60;99.90;;;;;;5099176;28;20024;-83
2023/10/16 07:03:47;;;;;;;42.08;13.75;;;2.70;99.90;;;;;;5079823;28;20021;-84
2023/10/16 07:06:14;;;;;;;35.22;12.52;;;2.80;99.90;;;;;;5065573;28;20115;-83
2023/10/16 07:08:41;;;;;;;44.78;14.13;;;2.90;99.90;;;;;;5069863;28;20036;-84
2023/10/16 07:11:11;;;;;;;36.33;13.75;;;3.00;99.90;;;;;;5084673;28;20505;-84
2023/10/16 07:13:38;;;;;;;34.80;13.50;;;3.00;99.90;;;;;;5058807;28;20701;-84
2023/10/16 07:16:05;;;;;;;36.53;11.25;;;3.10;99.90;;;;;;5065340;28;20029;-84
2023/10/16 07:18:33;;;;;;;34.53;12.63;;;3.10;99.90;;;;;;5100865;27;20031;-85
2023/10/16 07:21:06;;;;;;;42.15;13.27;;;3.20;99.90;;;;;;5061767;28;20024;-84
2023/10/16 07:23:36;;;;;;;39.88;10.35;;;3.20;99.90;;;;;;5088813;28;20042;-84
2023/10/16 07:26:02;;;;;;;29.98;10.32;;;3.30;99.90;;;;;;5088786;28;20021;-85
2023/10/16 07:28:29;;;;;;;38.15;10.25;;;3.40;99.90;;;;;;5094012;28;20035;-84
2023/10/16 07:31:05;;;;;;;25.45;10.50;;;3.50;99.90;;;;;;5081327;28;20028;-84
2023/10/16 07:33:32;;;;;;;26.13;10.40;;;3.60;99.90;;;;;;5087091;28;20880;-85
2023/10/16 07:36:10;;;;;;;26.67;9.15;;;3.60;99.90;;;;;;5082865;28;20432;-84
2023/10/16 07:38:40;;;;;;;23.00;9.55;;;3.70;99.90;;;;;;5081115;28;20363;-85
2023/10/16 07:41:09;;;;;;;21.75;8.20;;;3.80;99.90;;;;;;5090513;28;20020;-85
2023/10/16 07:43:36;;;;;;;23.75;7.78;;;4.00;99.90;;;;;;5069994;28;20027;-85
2023/10/16 07:48:40;;;;;;;26.58;8.25;;;4.20;99.90;;;;;;5084439;28;20180;-84
2023/10/16 07:51:09;;;;;;;19.58;7.93;;;4.30;99.90;;;;;;5098562;28;20031;-85
2023/10/16 07:53:36;;;;;;;18.45;8.20;;;4.40;99.90;;;;;;5077409;28;20097;-85
2023/10/16 07:56:03;;;;;;;26.58;6.97;;;4.50;99.90;;;;;;5070584;28;20039;-85
2023/10/16 07:58:35;;;;;;;19.30;6.20;;;4.50;99.90;;;;;;5099810;28;20032;-85
2023/10/16 08:03:36;;;;;;;16.73;5.65;;;4.70;99.90;;;;;;5092928;28;20031;-85
2023/10/16 08:06:05;;;;;;;12.57;5.25;;;4.80;99.90;;;;;;5131042;27;20524;-84
2023/10/16 08:08:42;;;;;;;13.70;5.15;;;4.90;99.90;;;;;;5098457;28;20028;-85
2023/10/16 08:11:13;;;;;;;12.18;5.60;;;5.00;99.90;;;;;;5098566;28;20043;-85
2023/10/16 08:13:46;;;;;;;8.57;4.15;;;5.10;99.90;;;;;;5098656;28;20027;-85
2023/10/16 08:16:24;;;;;;;15.30;5.35;;;5.20;99.90;;;;;;5113275;27;20063;-85
2023/10/16 08:18:59;;;;;;;18.27;4.65;;;5.30;99.90;;;;;;5091740;28;20123;-85
2023/10/16 08:21:25;;;;;;;15.55;4.15;;;5.40;99.90;;;;;;5098191;28;20024;-84
2023/10/16 08:23:56;;;;;;;9.95;4.00;;;5.50;99.90;;;;;;5119828;27;20027;-85
2023/10/16 08:26:28;;;;;;;9.95;3.72;;;5.60;99.90;;;;;;5079532;28;20032;-85
2023/10/16 08:34:35;;;;;;;9.77;4.70;;;5.70;99.90;;;;;;5083160;28;20043;-85
2023/10/16 08:37:03;;;;;;;12.80;3.25;;;5.70;99.90;;;;;;5097375;28;20032;-85
2023/10/16 08:39:36;;;;;;;13.25;4.05;;;5.80;99.90;;;;;;5079099;28;20027;-85
2023/10/16 08:42:18;;;;;;;13.15;3.53;;;5.90;99.90;;;;;;5067856;28;20504;-85
2023/10/16 08:44:51;;;;;;;5.82;3.55;;;5.90;99.90;;;;;;5095649;28;20829;-85
2023/10/16 08:47:24;;;;;;;9.07;3.55;;;6.00;99.90;;;;;;5058703;28;20020;-85
2023/10/16 08:49:54;;;;;;;8.90;2.67;;;6.10;99.90;;;;;;5087207;28;20057;-84
2023/10/16 08:52:21;;;;;;;6.22;3.00;;;6.10;99.90;;;;;;5060383;28;20029;-84
2023/10/16 08:55:26;;;;;;;9.38;3.50;;;6.10;99.90;;;;;;5070476;28;20052;-85
2023/10/16 08:57:51;;;;;;;8.32;2.60;;;6.10;99.90;;;;;;5077476;28;20031;-85
2023/10/16 09:00:21;;;;;;;5.53;2.30;;;6.10;99.90;;;;;;5091151;28;20073;-85
2023/10/16 09:02:53;;;;;;;7.18;2.13;;;6.20;99.90;;;;;;5073733;28;20031;-85
2023/10/16 09:05:20;;;;;;;6.28;2.60;;;6.20;99.90;;;;;;5083247;28;20028;-85
2023/10/16 09:07:48;;;;;;;10.02;2.70;;;6.30;99.90;;;;;;5108894;27;20427;-85
2023/10/16 09:10:15;;;;;;;12.82;2.60;;;6.40;99.90;;;;;;5070325;28;20095;-85
2023/10/16 09:12:55;;;;;;;7.72;2.28;;;6.50;99.90;;;;;;5083606;28;20055;-85
2023/10/16 09:15:27;;;;;;;7.70;2.42;;;6.60;99.90;;;;;;5081475;28;20036;-84
2023/10/16 09:17:54;;;;;;;4.78;2.08;;;6.80;99.90;;;;;;5078486;28;20107;-85
2023/10/16 09:20:32;;;;;;;6.25;2.83;;;7.30;99.90;;;;;;5065824;28;20036;-84
2023/10/16 09:23:06;;;;;;;3.75;3.08;;;8.00;99.90;;;;;;5097684;28;20053;-85
2023/10/16 09:25:34;;;;;;;8.18;2.20;;;8.70;99.90;;;;;;5068259;28;20020;-85
2023/10/16 09:28:00;;;;;;;15.35;2.00;;;9.40;99.90;;;;;;5064364;28;20020;-84
2023/10/16 09:30:35;;;;;;;6.45;1.80;;;9.80;99.90;;;;;;5061767;28;20080;-85
2023/10/16 09:33:01;;;;;;;6.75;1.65;;;10.10;99.90;;;;;;5074566;28;20090;-85
2023/10/16 09:35:32;;;;;;;5.78;2.00;;;10.40;99.90;;;;;;5057657;28;20092;-85
2023/10/16 09:38:17;;;;;;;;;;;10.00;99.90;;;;;;5049607;28;20036;-85
2023/10/16 09:49:23;;;;;;;3.20;1.48;;;10.30;99.90;;;;;;5072482;28;20063;-85
2023/10/16 09:51:51;;;;;;;5.13;1.48;;;10.60;99.90;;;;;;5071821;28;20969;-85
2023/10/16 09:54:21;;;;;;;5.78;2.60;;;10.90;99.90;;;;;;5072291;28;20483;-86
2023/10/16 09:56:49;;;;;;;10.43;2.35;;;11.00;99.90;;;;;;5075359;28;20073;-85
2023/10/16 09:59:26;;;;;;;7.32;2.30;;;11.40;99.90;;;;;;5072939;28;20029;-85
2023/10/16 10:01:55;;;;;;;6.82;2.00;;;11.60;99.90;;;;;;5075245;28;20089;-85
2023/10/16 10:04:24;;;;;;;10.15;2.63;;;11.80;99.90;;;;;;5075546;28;20032;-86
2023/10/16 10:06:58;;;;;;;8.77;2.30;;;12.40;99.90;;;;;;5104772;27;20048;-86
2023/10/16 10:09:41;;;;;;;5.07;2.40;;;12.90;99.90;;;;;;5076224;28;20498;-86
2023/10/16 10:12:47;;;;;;;7.65;2.20;;;13.00;99.90;;;;;;5052338;28;20530;-85
2023/10/16 10:15:32;;;;;;;9.13;3.78;;;12.60;99.90;;;;;;5076918;28;20039;-85
2023/10/16 10:18:31;;;;;;;5.68;2.45;;;12.50;99.90;;;;;;5068501;28;20020;-85
2023/10/16 10:20:48;;;;;;;4.47;1.80;;;12.60;99.90;;;;;;5101727;28;20390;-86
2023/10/16 10:23:15;;;;;;;3.95;2.05;;;12.80;99.90;;;;;;5051575;28;20037;-85
2023/10/16 10:25:41;;;;;;;4.70;1.75;;;12.60;99.90;;;;;;5074764;28;20031;-86
2023/10/16 10:28:24;;;;;;;6.80;2.53;;;12.80;99.90;;;;;;5059109;28;20036;-86
2023/10/16 10:30:55;;;;;;;5.35;1.83;;;13.20;99.90;;;;;;5074561;28;20600;-85
2023/10/16 10:33:55;;;;;;;6.10;2.13;;;12.80;99.90;;;;;;5081010;28;20047;-85
2023/10/16 10:36:29;;;;;;;5.90;2.00;;;12.40;99.90;;;;;;5117041;27;20040;-85
2023/10/16 10:39:21;;;;;;;7.30;1.92;;;12.40;99.90;;;;;;5099749;28;20591;-85
2023/10/16 10:41:54;;;;;;;;;;;12.30;99.90;;;;;;5105425;28;20101;-86
2023/10/16 10:44:30;;;;;;;5.65;2.03;;;12.30;99.90;;;;;;5107036;27;19907;-85
2023/10/16 10:47:00;;;;;;;8.63;2.55;;;11.90;99.90;;;;;;5068946;28;20050;-86
2023/10/16 10:49:33;;;;;;;4.72;2.13;;;11.90;99.90;;;;;;5080252;28;20115;-85
2023/10/16 10:52:12;;;;;;;5.78;2.00;;;11.80;99.90;;;;;;5074559;28;20070;-84
2023/10/16 10:54:44;;;;;;;5.53;1.83;;;10.90;99.90;;;;;;5117135;27;20040;-85
2023/10/16 10:57:18;;;;;;;4.03;1.67;;;10.30;99.90;;;;;;5100081;28;20056;-85
2023/10/16 10:59:47;;;;;;;5.03;2.03;;;10.20;99.90;;;;;;5071979;28;20028;-85
2023/10/16 11:04:47;;;;;;;7.18;2.22;;;9.80;99.90;;;;;;5090437;28;20039;-85
2023/10/16 11:07:25;;;;;;;4.82;2.38;;;9.80;99.90;;;;;;5065331;28;20019;-85
2023/10/16 11:10:13;;;;;;;3.90;2.30;;;10.00;99.90;;;;;;5084724;28;20452;-85
2023/10/16 11:12:39;;;;;;;3.40;1.63;;;10.10;99.90;;;;;;5074245;28;20098;-86
2023/10/16 11:15:19;;;;;;;5.97;1.70;;;10.10;99.90;;;;;;5089533;28;20043;-85
2023/10/16 11:17:46;;;;;;;4.93;2.75;;;10.40;99.90;;;;;;5078320;28;20568;-85
2023/10/16 11:20:27;;;;;;;14.32;7.07;;;10.60;99.90;;;;;;5073549;28;20077;-85
2023/10/16 11:22:56;;;;;;;16.58;7.93;;;10.80;99.90;;;;;;5092395;28;20479;-86
2023/10/16 11:25:28;;;;;;;5.00;2.33;;;11.50;99.90;;;;;;5073788;28;20475;-86
2023/10/16 11:27:57;;;;;;;3.65;1.88;;;11.70;99.90;;;;;;5061283;28;20020;-85
2023/10/16 11:30:26;;;;;;;4.75;1.60;;;11.90;99.90;;;;;;5107069;28;20028;-85
2023/10/16 11:32:54;;;;;;;6.55;1.80;;;12.30;99.90;;;;;;5063568;28;20130;-85
2023/10/16 11:35:21;;;;;;;4.97;1.90;;;13.00;99.90;;;;;;5071323;28;20053;-86
2023/10/16 11:38:31;;;;;;;8.05;4.32;;;13.80;99.90;;;;;;5065299;28;20028;-85
2023/10/16 11:40:42;;;;;;;2.90;1.43;;;13.20;99.90;;;;;;5079424;28;20040;-84
2023/10/16 11:43:11;;;;;;;12.38;5.80;;;13.30;99.90;;;;;;5067981;28;20294;-85
2023/10/16 11:45:42;;;;;;;8.90;3.40;;;12.80;99.90;;;;;;5078994;28;20054;-85
2023/10/16 11:51:16;;;;;;;5.60;1.60;;;12.90;99.90;;;;;;5017006;28;20719;-85
2023/10/16 11:53:45;;;;;;;3.63;1.80;;;13.20;99.90;;;;;;5024013;28;20059;-85
2023/10/16 11:56:13;;;;;;;3.70;1.90;;;13.40;99.90;;;;;;5010276;28;20036;-85
2023/10/16 11:58:41;;;;;;;4.95;2.00;;;13.20;99.90;;;;;;5073482;28;20030;-85
2023/10/16 12:01:11;;;;;;;4.05;1.77;;;12.40;99.90;;;;;;5084746;28;20119;-85
2023/10/16 12:03:37;;;;;;;8.05;2.60;;;12.10;99.90;;;;;;5074906;28;20038;-83
2023/10/16 12:06:13;;;;;;;4.00;2.03;;;12.10;99.90;;;;;;5073794;28;20036;-85
2023/10/16 12:08:41;;;;;;;14.85;5.70;;;12.20;99.90;;;;;;5094224;28;20028;-86
2023/10/16 12:11:13;;;;;;;7.78;2.60;;;12.50;99.90;;;;;;5060597;28;20032;-85
2023/10/16 12:13:46;;;;;;;6.55;2.83;;;12.30;99.90;;;;;;5094527;27;20475;-84
2023/10/16 12:16:12;;;;;;;7.32;2.95;;;12.00;99.90;;;;;;5087348;28;20479;-85
2023/10/16 12:18:38;;;;;;;7.25;3.63;;;11.70;99.90;;;;;;5088860;28;20033;-85
2023/10/16 12:21:07;;;;;;;3.42;1.73;;;11.60;99.90;;;;;;5109760;28;20058;-85
2023/10/16 12:23:49;;;;;;;11.38;4.60;;;11.70;99.90;;;;;;5076622;28;20031;-85
2023/10/16 12:26:16;;;;;;;8.38;2.17;;;12.20;99.90;;;;;;5094795;28;20039;-86
2023/10/16 12:28:43;;;;;;;5.68;2.72;;;12.80;99.90;;;;;;5074806;28;20569;-86
2023/10/16 12:31:09;;;;;;;2.47;1.30;;;13.00;99.90;;;;;;5087987;28;20043;-86
2023/10/16 12:33:37;;;;;;;3.50;1.80;;;13.10;99.90;;;;;;5057920;28;20029;-85
2023/10/16 12:36:07;;;;;;;11.63;4.60;;;12.60;99.90;;;;;;5110723;28;20031;-84
2023/10/16 12:38:33;;;;;;;6.87;1.87;;;12.50;99.90;;;;;;5057405;28;20038;-86
2023/10/16 12:41:05;;;;;;;3.63;1.48;;;12.40;99.90;;;;;;5068996;28;20275;-86
2023/10/16 12:43:30;;;;;;;4.43;1.63;;;12.50;99.90;;;;;;5075712;28;20035;-86
2023/10/16 12:45:57;;;;;;;4.90;1.60;;;12.90;99.90;;;;;;5076428;28;20115;-86
2023/10/16 12:48:29;;;;;;;4.53;1.65;;;13.30;99.90;;;;;;5075821;28;20050;-86
2023/10/16 12:50:59;;;;;;;2.75;1.20;;;13.10;99.90;;;;;;5071963;28;20062;-85
2023/10/16 12:53:28;;;;;;;6.55;1.45;;;13.00;99.90;;;;;;5073505;28;20028;-86
2023/10/16 12:55:55;;;;;;;1.85;1.00;;;13.00;99.90;;;;;;5073566;28;20051;-86
2023/10/16 12:58:22;;;;;;;3.85;1.67;;;13.00;99.90;;;;;;5081144;28;20024;-86
2023/10/16 13:00:50;;;;;;;4.00;1.35;;;12.80;99.90;;;;;;5067506;28;20032;-86
2023/10/16 13:03:19;;;;;;;1.98;1.10;;;12.50;99.90;;;;;;5060112;28;20032;-85
2023/10/16 13:05:45;;;;;;;5.03;1.20;;;11.90;99.90;;;;;;5082900;28;20058;-85
2023/10/16 13:08:11;;;;;;;3.90;1.70;;;11.50;99.90;;;;;;5090107;28;20271;-85
2023/10/16 13:10:37;;;;;;;6.15;2.75;;;11.10;99.90;;;;;;5066025;28;20028;-85
2023/10/16 13:13:03;;;;;;;2.25;1.33;;;10.70;99.90;;;;;;5080705;28;20174;-84
2023/10/16 13:15:29;;;;;;;4.70;1.50;;;10.40;99.90;;;;;;5107628;28;20035;-85
2023/10/16 13:18:29;;;;;;;6.43;1.60;;;10.20;99.90;;;;;;5102293;28;20035;-85
2023/10/16 13:21:12;;;;;;;8.18;1.67;;;10.00;99.90;;;;;;5090427;28;20038;-85
2023/10/16 13:23:39;;;;;;;3.63;1.30;;;9.90;99.90;;;;;;5082689;28;20070;-84
2023/10/16 13:26:08;;;;;;;5.10;1.10;;;9.80;99.90;;;;;;5081784;28;20464;-84
2023/10/16 13:28:40;;;;;;;6.95;1.20;;;9.70;99.90;;;;;;5116341;27;20070;-85
2023/10/16 13:31:10;;;;;;;2.90;1.70;;;9.60;99.90;;;;;;5082583;28;20040;-85
2023/10/16 13:33:41;;;;;;;2.47;1.20;;;9.50;99.90;;;;;;5086810;28;20071;-85
2023/10/16 13:36:11;;;;;;;5.28;1.77;;;9.50;99.90;;;;;;5096147;28;20039;-85
2023/10/16 13:38:37;;;;;;;4.80;1.60;;;9.50;99.90;;;;;;5099223;28;20050;-85
2023/10/16 13:41:17;;;;;;;6.82;2.05;;;9.50;99.90;;;;;;5095184;28;20028;-85
2023/10/16 13:43:43;;;;;;;3.80;1.35;;;9.50;99.90;;;;;;5081216;28;20024;-84
2023/10/16 13:46:08;;;;;;;7.50;2.15;;;9.50;99.90;;;;;;5099848;28;20043;-85
2023/10/16 13:48:34;;;;;;;6.10;1.88;;;9.40;99.90;;;;;;5104297;28;20374;-85
2023/10/16 13:50:59;;;;;;;3.63;1.73;;;9.40;99.90;;;;;;5105862;28;20028;-85
2023/10/16 13:53:27;;;;;;;6.53;1.55;;;9.50;99.90;;;;;;5084206;28;20031;-84
2023/10/16 13:55:54;;;;;;;4.28;1.50;;;9.50;99.90;;;;;;5053597;28;20046;-85
2023/10/16 13:58:21;;;;;;;3.90;1.50;;;9.50;99.90;;;;;;5108319;28;20119;-85
2023/10/16 14:00:47;;;;;;;3.95;2.30;;;9.50;99.90;;;;;;5074888;28;20031;-85
2023/10/16 14:05:44;;;;;;;4.72;1.90;;;9.60;99.90;;;;;;5071341;28;20033;-84
2023/10/16 14:08:10;;;;;;;4.13;2.17;;;9.60;99.90;;;;;;5088685;28;20030;-85
2023/10/16 14:10:39;;;;;;;5.00;1.73;;;9.60;99.90;;;;;;5099312;28;20024;-84
2023/10/16 14:13:18;;;;;;;5.22;2.10;;;9.60;99.90;;;;;;5085697;28;20036;-85
2023/10/16 14:15:47;;;;;;;5.93;1.80;;;9.70;99.90;;;;;;5075306;28;20039;-85
2023/10/16 14:18:32;;;;;;;6.30;1.88;;;9.70;99.90;;;;;;5075564;28;20035;-85
2023/10/16 14:20:58;;;;;;;8.57;2.58;;;9.70;99.90;;;;;;5071390;28;20040;-85
2023/10/16 14:23:28;;;;;;;6.05;2.22;;;9.70;99.90;;;;;;5089800;28;20459;-85
2023/10/16 14:25:58;;;;;;;6.35;1.75;;;9.70;99.90;;;;;;5076413;28;20419;-85
2023/10/16 14:28:32;;;;;;;4.95;2.63;;;9.60;99.90;;;;;;5053942;28;20503;-85
2023/10/16 14:31:01;;;;;;;5.72;3.20;;;9.50;99.90;;;;;;5069920;28;20037;-85
2023/10/16 14:33:28;;;;;;;4.93;1.52;;;9.50;99.90;;;;;;5089035;28;20482;-85
2023/10/16 14:35:56;;;;;;;3.72;1.80;;;9.50;99.90;;;;;;5074458;28;20032;-85
2023/10/16 14:38:23;;;;;;;2.65;1.52;;;9.50;99.90;;;;;;5075120;28;20483;-85
2023/10/16 14:40:49;;;;;;;4.63;1.70;;;9.40;99.90;;;;;;5074671;28;20025;-84
2023/10/16 14:43:17;;;;;;;5.10;1.42;;;9.40;99.90;;;;;;5120687;28;20031;-86
2023/10/16 14:45:47;;;;;;;2.78;1.67;;;9.50;99.90;;;;;;5091062;28;20538;-85
2023/10/16 14:48:16;;;;;;;2.55;1.30;;;9.50;99.90;;;;;;5075138;28;20024;-85
2023/10/16 14:50:45;;;;;;;3.05;1.98;;;9.40;99.90;;;;;;5088343;28;20497;-85
2023/10/16 14:53:11;;;;;;;4.07;1.40;;;9.40;99.90;;;;;;5075379;28;20055;-85
2023/10/16 14:55:37;;;;;;;3.00;1.88;;;9.40;99.90;;;;;;5074492;28;20476;-85
2023/10/16 14:58:05;;;;;;;7.47;1.58;;;9.30;99.90;;;;;;5075884;28;20458;-86
2023/10/16 15:00:32;;;;;;;5.25;1.40;;;9.20;99.90;;;;;;5084133;28;20062;-84
2023/10/16 15:03:03;;;;;;;1.88;1.23;;;9.10;99.90;;;;;;5108753;28;20474;-85
2023/10/16 15:05:28;;;;;;;3.33;1.90;;;9.00;99.90;;;;;;5108561;28;20039;-85
2023/10/16 15:07:58;;;;;;;3.45;1.60;;;8.90;99.90;;;;;;5077918;28;20483;-85
2023/10/16 15:10:55;;;;;;;2.22;1.27;;;8.80;99.90;;;;;;5078296;28;20038;-85